Time;durP1;ratioP1;P1;durP2;ratioP2;P2;SDS_P1;SDS_P2;PMS_P1;PMS_P2;Temp;Humidity;BMP_temperature;BMP_pressure;BME280_temperature;BME280_humidity;BME280_pressure;Samples;Min_cycle;Max_cycle;Signal;HPM_P1;HPM_P2
2022/10/23 00:03:10;;;;;;;11.77;6.00;;;;;;;10.66;100.00;100355.34;20533203;28;20278;-81
2022/10/23 00:13:11;;;;;;;13.20;6.20;;;;;;;10.57;100.00;100350.25;20544195;28;20066;-81
2022/10/23 00:23:13;;;;;;;13.20;5.72;;;;;;;10.49;100.00;100338.16;20542063;28;20027;-81
2022/10/23 00:33:15;;;;;;;10.23;5.38;;;;;;;10.48;100.00;100315.47;20541971;28;20039;-81
2022/10/23 00:43:16;;;;;;;13.02;6.43;;;;;;;10.48;100.00;100331.19;20538593;28;20105;-81
2022/10/23 00:53:17;;;;;;;16.35;5.90;;;;;;;10.40;100.00;100322.63;20515802;28;20047;-81
2022/10/23 01:03:18;;;;;;;16.88;5.88;;;;;;;10.33;100.00;100310.50;20512076;28;20055;-81
2022/10/23 01:13:20;;;;;;;12.02;6.65;;;;;;;10.26;100.00;100308.88;20521252;28;20098;-81
2022/10/23 01:23:22;;;;;;;23.08;7.05;;;;;;;10.23;100.00;100303.66;20507604;23;20500;-73
2022/10/23 01:33:23;;;;;;;14.32;6.32;;;;;;;10.17;100.00;100303.75;20483152;28;20044;-74
2022/10/23 01:43:25;;;;;;;13.15;5.68;;;;;;;10.16;100.00;100304.66;20486436;28;20058;-73
2022/10/23 01:53:26;;;;;;;16.23;5.88;;;;;;;10.11;100.00;100294.25;20489498;28;20467;-73
2022/10/23 02:03:27;;;;;;;12.35;6.25;;;;;;;10.02;100.00;100274.34;20485613;28;20043;-74
2022/10/23 02:13:29;;;;;;;14.88;6.10;;;;;;;10.05;100.00;100267.31;20488137;28;20074;-73
2022/10/23 02:23:30;;;;;;;11.88;6.07;;;;;;;10.05;100.00;100262.06;20507352;28;20051;-73
2022/10/23 02:33:31;;;;;;;13.52;5.90;;;;;;;10.00;100.00;100255.16;20504022;28;20102;-72
2022/10/23 02:43:33;;;;;;;18.30;6.32;;;;;;;10.02;100.00;100255.16;20503539;28;20091;-73
2022/10/23 02:53:34;;;;;;;14.10;5.55;;;;;;;10.05;100.00;100256.84;20500186;29;20043;-72
2022/10/23 03:03:35;;;;;;;9.32;4.97;;;;;;;10.03;100.00;100234.19;20497646;29;20349;-73
2022/10/23 03:13:37;;;;;;;12.85;5.53;;;;;;;10.00;100.00;100238.59;20498566;29;20050;-71
2022/10/23 03:23:38;;;;;;;14.73;5.57;;;;;;;10.13;100.00;100229.69;20500984;28;20389;-72
2022/10/23 03:33:40;;;;;;;14.43;4.68;;;;;;;10.24;100.00;100221.69;20496847;28;20055;-73
2022/10/23 03:43:41;;;;;;;11.75;5.15;;;;;;;10.33;100.00;100221.50;20510507;28;20043;-72
2022/10/23 03:53:42;;;;;;;8.88;4.60;;;;;;;10.49;100.00;100215.13;20503308;28;20047;-72
2022/10/23 04:03:44;;;;;;;10.38;5.47;;;;;;;10.52;100.00;100206.34;20499952;29;20062;-73
2022/10/23 04:13:45;;;;;;;10.13;5.88;;;;;;;10.63;100.00;100221.84;20500652;28;20047;-74
2022/10/23 04:23:47;;;;;;;15.02;6.38;;;;;;;10.59;100.00;100214.94;20501404;28;20051;-74
2022/10/23 04:33:48;;;;;;;11.15;5.55;;;;;;;10.52;100.00;100211.59;20495962;28;20055;-72
2022/10/23 04:43:49;;;;;;;12.55;5.10;;;;;;;10.60;100.00;100214.06;20497645;28;20498;-72
2022/10/23 04:53:51;;;;;;;10.43;4.85;;;;;;;10.65;100.00;100213.09;20498570;29;20222;-72
2022/10/23 05:03:52;;;;;;;9.05;5.10;;;;;;;10.62;100.00;100191.31;20498088;29;20047;-72
2022/10/23 05:13:54;;;;;;;13.68;6.00;;;;;;;10.43;100.00;100189.06;20497137;29;20511;-72
2022/10/23 05:23:56;;;;;;;7.78;4.40;;;;;;;10.34;100.00;100186.59;20487958;28;20404;-73
2022/10/23 05:33:57;;;;;;;12.48;5.70;;;;;;;10.38;100.00;100175.19;20488600;29;20058;-72
2022/10/23 05:43:59;;;;;;;10.50;5.15;;;;;;;10.31;100.00;100172.72;20493948;28;20384;-72
2022/10/23 05:54:00;;;;;;;18.50;6.85;;;;;;;10.14;100.00;100166.00;20490156;28;20051;-72
2022/10/23 06:04:01;;;;;;;11.95;5.43;;;;;;;10.02;100.00;100153.16;20488161;28;20082;-72
2022/10/23 06:14:03;;;;;;;13.65;6.13;;;;;;;9.91;100.00;100140.22;20490006;28;20052;-72
2022/10/23 06:24:04;;;;;;;11.18;5.72;;;;;;;9.89;100.00;100142.03;20492213;29;20055;-72
2022/10/23 06:34:06;;;;;;;11.98;4.90;;;;;;;9.97;100.00;100124.47;20488626;28;20043;-72
2022/10/23 06:44:09;;;;;;;11.50;5.40;;;;;;;10.15;100.00;100140.69;20488829;29;20050;-73
2022/10/23 06:54:10;;;;;;;16.70;5.90;;;;;;;10.20;100.00;100154.56;20488941;28;20055;-71
2022/10/23 07:04:13;;;;;;;8.85;4.72;;;;;;;10.26;100.00;100151.88;20497431;28;20047;-74
2022/10/23 07:14:14;;;;;;;10.25;5.43;;;;;;;10.54;100.00;100157.47;20507431;28;20492;-72
2022/10/23 07:24:15;;;;;;;8.82;5.45;;;;;;;10.92;100.00;100180.25;20501453;28;20051;-74
2022/10/23 07:34:17;;;;;;;11.82;5.13;;;;;;;11.21;100.00;100171.78;20497718;28;20054;-74
2022/10/23 07:44:18;;;;;;;11.48;5.72;;;;;;;11.44;100.00;100163.38;20496245;28;20109;-75
2022/10/23 07:54:24;;;;;;;11.95;4.93;;;;;;;11.73;100.00;100159.19;20503840;29;20411;-75
2022/10/23 08:04:25;;;;;;;11.35;5.65;;;;;;;12.02;100.00;100145.38;20500275;28;20047;-75
2022/10/23 08:14:27;;;;;;;10.35;5.30;;;;;;;12.54;100.00;100150.09;20497953;28;20059;-74
2022/10/23 08:24:28;;;;;;;9.90;4.72;;;;;;;12.99;100.00;100162.00;20491400;28;20047;-74
2022/10/23 08:34:30;;;;;;;8.70;4.25;;;;;;;13.74;100.00;100147.38;20500364;28;20083;-74
2022/10/23 08:44:31;;;;;;;8.13;3.90;;;;;;;14.07;100.00;100129.59;20493978;28;20051;-75
2022/10/23 08:54:33;;;;;;;8.35;4.85;;;;;;;14.24;100.00;100120.28;20492452;28;20459;-75
2022/10/23 09:04:34;;;;;;;8.73;3.55;;;;;;;14.63;100.00;100112.75;20487870;29;20054;-76
2022/10/23 09:14:35;;;;;;;8.20;4.63;;;;;;;14.72;100.00;100107.13;20488415;29;20051;-76
2022/10/23 09:24:37;;;;;;;7.63;3.80;;;;;;;14.93;100.00;100092.25;20487864;28;20065;-74
2022/10/23 09:34:41;;;;;;;8.52;4.18;;;;;;;15.28;100.00;100085.63;20510262;28;20054;-77
2022/10/23 09:45:14;;;;;;;8.15;3.10;;;;;;;15.74;100.00;100073.19;20510586;28;20071;-77
2022/10/23 09:55:35;;;;;;;6.45;3.60;;;;;;;15.94;100.00;100063.56;20502950;28;20059;-76
2022/10/23 10:05:37;;;;;;;8.57;4.05;;;;;;;16.08;100.00;100083.16;20503362;29;20047;-74
2022/10/23 10:15:38;;;;;;;10.45;4.38;;;;;;;16.26;100.00;100060.38;20496313;28;20464;-74
2022/10/23 10:25:40;;;;;;;8.00;3.70;;;;;;;16.77;100.00;100036.94;20494349;28;20460;-76
2022/10/23 10:35:41;;;;;;;5.55;2.53;;;;;;;16.90;100.00;100027.50;20494833;28;20528;-76
2022/10/23 10:45:42;;;;;;;6.25;2.78;;;;;;;16.97;100.00;100030.72;20574659;28;20062;-78
2022/10/23 10:55:44;;;;;;;6.35;2.63;;;;;;;17.14;100.00;100039.53;20586453;28;20050;-82
2022/10/23 11:05:45;;;;;;;6.28;2.72;;;;;;;17.31;100.00;100016.72;20585033;28;20117;-78
2022/10/23 11:15:47;;;;;;;8.95;3.33;;;;;;;17.55;100.00;99990.81;20585585;28;20419;-78
2022/10/23 11:25:48;;;;;;;8.10;3.33;;;;;;;17.03;100.00;99983.66;20585185;28;20051;-78
2022/10/23 11:35:49;;;;;;;6.75;2.60;;;;;;;17.22;100.00;99972.19;20557665;28;20091;-79
2022/10/23 11:45:51;;;;;;;4.35;2.40;;;;;;;17.69;100.00;99962.69;20488423;28;20051;-79
2022/10/23 11:55:52;;;;;;;7.47;2.17;;;;;;;17.68;100.00;99937.13;20500927;28;20058;-78
2022/10/23 12:05:53;;;;;;;5.03;2.03;;;;;;;17.50;100.00;99926.66;20501608;28;20063;-78
2022/10/23 12:15:55;;;;;;;4.55;1.70;;;;;;;17.61;100.00;99916.34;20501799;28;20047;-79
2022/10/23 12:26:01;;;;;;;3.75;1.83;;;;;;;18.11;100.00;99905.75;20498167;28;20508;-76
2022/10/23 12:36:02;;;;;;;5.25;1.60;;;;;;;18.37;100.00;99900.78;20496884;28;20063;-77
2022/10/23 12:46:03;;;;;;;5.20;2.08;;;;;;;18.30;100.00;99868.47;20549034;28;20058;-77
2022/10/23 12:56:05;;;;;;;6.30;2.70;;;;;;;18.49;100.00;99854.16;20575260;28;20055;-77
2022/10/23 13:06:06;;;;;;;4.78;1.95;;;;;;;18.19;100.00;99841.72;20573241;28;20466;-76
2022/10/23 13:16:08;;;;;;;5.60;2.10;;;;;;;18.02;100.00;99831.22;20517386;28;20078;-77
2022/10/23 13:26:09;;;;;;;6.25;2.33;;;;;;;18.35;100.00;99823.13;20499079;28;20047;-77
2022/10/23 13:36:14;;;;;;;6.85;2.10;;;;;;;18.45;100.00;99809.28;20489307;28;20126;-77
2022/10/23 13:46:15;;;;;;;;;;;;;;;18.59;100.00;99789.06;20561327;28;20093;-77
2022/10/23 13:56:16;;;;;;;4.75;1.70;;;;;;;18.51;100.00;99773.63;20571680;28;19922;-77
2022/10/23 14:06:17;;;;;;;4.32;1.98;;;;;;;18.35;100.00;99770.13;20567716;28;20051;-75
2022/10/23 14:16:22;;;;;;;6.85;1.88;;;;;;;18.37;100.00;99771.75;20513656;28;20051;-77
2022/10/23 14:26:23;;;;;;;6.95;2.08;;;;;;;18.18;100.00;99771.97;20488155;28;20048;-77
2022/10/23 14:36:25;;;;;;;7.97;2.35;;;;;;;18.16;100.00;99773.84;20557401;28;20485;-77
2022/10/23 14:46:38;;;;;;;5.82;2.22;;;;;;;18.06;100.00;99762.09;20561816;28;20085;-76
2022/10/23 14:56:40;;;;;;;6.18;1.98;;;;;;;18.00;100.00;99754.47;20565961;28;20054;-74
2022/10/23 15:06:41;;;;;;;9.48;2.10;;;;;;;17.92;100.00;99746.13;20445897;28;20051;-78
2022/10/23 15:16:42;;;;;;;8.35;1.90;;;;;;;17.72;100.00;99714.53;20496892;28;20118;-77
2022/10/23 15:26:44;;;;;;;5.68;1.77;;;;;;;17.74;100.00;99692.38;20532094;28;20526;-78
2022/10/23 15:36:45;;;;;;;5.70;1.80;;;;;;;17.74;100.00;99673.00;20567353;28;20047;-78
2022/10/23 15:46:47;;;;;;;6.70;1.90;;;;;;;17.40;100.00;99670.41;20574793;28;20507;-77
2022/10/23 15:56:48;;;;;;;5.15;1.80;;;;;;;17.18;100.00;99670.72;20579130;28;20396;-78
2022/10/23 16:06:50;;;;;;;6.55;1.98;;;;;;;16.97;100.00;99661.31;20585030;28;20058;-77
2022/10/23 16:16:51;;;;;;;10.57;6.00;;;;;;;16.72;100.00;99650.34;20538172;28;20055;-79
2022/10/23 16:26:55;;;;;;;17.42;9.48;;;;;;;16.62;100.00;99640.25;20500423;28;20055;-78
2022/10/23 16:36:56;;;;;;;9.70;4.78;;;;;;;16.54;100.00;99668.84;20497318;28;20102;-78
2022/10/23 16:46:57;;;;;;;13.38;5.40;;;;;;;16.54;100.00;99642.41;20575396;28;20046;-78
2022/10/23 16:56:59;;;;;;;14.18;6.38;;;;;;;16.54;100.00;99681.22;20564885;28;20109;-78
2022/10/23 17:07:00;;;;;;;10.05;5.00;;;;;;;16.47;100.00;99683.28;20493443;28;20404;-77
2022/10/23 17:17:02;;;;;;;14.05;6.75;;;;;;;16.38;100.00;99763.03;20492794;28;20047;-78
2022/10/23 17:27:04;;;;;;;14.10;3.38;;;;;;;16.25;100.00;99830.63;20484831;28;20052;-76
2022/10/23 17:37:06;;;;;;;7.85;2.40;;;;;;;16.10;100.00;99922.88;20421786;29;20051;-77
2022/10/23 17:47:08;;;;;;;6.95;2.65;;;;;;;16.01;100.00;99896.88;20564432;28;20051;-76
2022/10/23 17:57:09;;;;;;;9.05;2.80;;;;;;;16.08;100.00;99839.34;20555275;28;20810;-77
2022/10/23 18:07:11;;;;;;;8.18;3.63;;;;;;;16.01;100.00;99894.25;20522612;28;20153;-78
2022/10/23 18:17:13;;;;;;;11.48;3.20;;;;;;;15.97;100.00;99833.72;20566358;28;20102;-76
2022/10/23 18:27:14;;;;;;;12.13;4.25;;;;;;;15.93;100.00;99835.63;20566200;28;20496;-74
2022/10/23 18:37:16;;;;;;;12.20;3.45;;;;;;;15.92;100.00;99839.22;20548380;28;20051;-74
2022/10/23 18:47:17;;;;;;;11.15;3.60;;;;;;;15.96;100.00;99829.38;20407931;29;20115;-74
2022/10/23 18:57:19;;;;;;;11.73;4.00;;;;;;;15.86;100.00;99848.28;20432671;28;20388;-74
2022/10/23 19:07:21;;;;;;;16.98;4.97;;;;;;;15.82;100.00;99785.13;20500310;28;20055;-74
2022/10/23 19:17:23;;;;;;;12.63;3.80;;;;;;;15.75;100.00;99802.19;20499657;28;20115;-75
2022/10/23 19:27:24;;;;;;;12.40;5.03;;;;;;;15.68;100.00;99809.53;20499585;28;20051;-75
2022/10/23 19:37:25;;;;;;;12.60;4.22;;;;;;;15.57;100.00;99817.03;20499679;28;20059;-75
2022/10/23 19:47:27;;;;;;;12.13;4.55;;;;;;;15.47;100.00;99811.31;20578595;28;20058;-76
2022/10/23 19:57:32;;;;;;;12.02;5.22;;;;;;;15.43;100.00;99815.03;20576582;28;20050;-73
2022/10/23 20:07:34;;;;;;;13.13;5.43;;;;;;;15.38;100.00;99819.66;20575125;28;20050;-73
2022/10/23 20:17:36;;;;;;;12.02;4.30;;;;;;;15.35;100.00;99810.09;20574441;28;20047;-74
2022/10/23 20:27:37;;;;;;;16.67;5.18;;;;;;;15.38;100.00;99803.84;20573960;28;20183;-74
2022/10/23 20:37:39;;;;;;;11.88;5.00;;;;;;;15.34;100.00;99800.47;20555098;28;20051;-74
2022/10/23 20:47:40;;;;;;;10.32;3.95;;;;;;;15.34;100.00;99818.09;20573322;28;20061;-74
2022/10/23 20:57:42;;;;;;;7.82;3.75;;;;;;;15.32;100.00;99827.84;20573152;28;20579;-73
2022/10/23 21:07:44;;;;;;;10.70;4.60;;;;;;;15.34;100.00;99826.84;20571994;28;20047;-73
2022/10/23 21:17:48;;;;;;;11.80;5.07;;;;;;;15.31;100.00;99834.03;20571448;28;20415;-74
2022/10/23 21:27:49;;;;;;;12.70;4.47;;;;;;;15.27;100.00;99832.47;20493344;28;20086;-73
2022/10/23 21:37:51;;;;;;;11.50;4.70;;;;;;;15.15;100.00;99836.50;20494961;28;20496;-73
2022/10/23 21:47:52;;;;;;;12.93;4.70;;;;;;;15.06;100.00;99829.00;20570175;28;20066;-73
2022/10/23 21:57:53;;;;;;;15.13;5.22;;;;;;;15.01;100.00;99836.25;20545116;28;20058;-73
2022/10/23 22:07:55;;;;;;;11.13;4.53;;;;;;;14.98;100.00;99829.31;20481869;28;20071;-72
2022/10/23 22:17:58;;;;;;;11.18;5.43;;;;;;;14.88;100.00;99817.44;20415400;29;20062;-72
2022/10/23 22:27:59;;;;;;;19.48;6.05;;;;;;;14.73;100.00;99845.31;20418203;29;20098;-71
2022/10/23 22:38:01;;;;;;;18.23;4.88;;;;;;;15.21;100.00;99816.91;20450263;28;20051;-69
2022/10/23 22:48:02;;;;;;;16.10;4.30;;;;;;;15.23;100.00;99823.81;20589307;28;20089;-70
2022/10/23 22:58:03;;;;;;;16.35;4.50;;;;;;;15.14;100.00;99830.38;20589409;28;20553;-70
2022/10/23 23:08:05;;;;;;;19.85;6.05;;;;;;;15.16;100.00;99826.81;20587397;28;20050;-71
2022/10/23 23:18:06;;;;;;;10.93;3.72;;;;;;;15.07;100.00;99838.59;20588666;28;20058;-71
2022/10/23 23:28:08;;;;;;;9.90;3.70;;;;;;;14.78;100.00;99845.97;20587628;28;20054;-70
2022/10/23 23:38:09;;;;;;;15.15;4.18;;;;;;;14.61;100.00;99856.34;20567114;28;20102;-70
2022/10/23 23:48:10;;;;;;;13.73;4.20;;;;;;;14.35;100.00;99876.66;20508725;28;20059;-70
2022/10/23 23:58:12;;;;;;;11.05;3.58;;;;;;;14.14;100.00;99876.66;20504774;28;20416;-71
